Terminal Aerodrome Forecast
Issued by NWS Charleston, WV

Current Version | Previous Version | Graphics & Text | Print | Product List | Glossary On
Versions: 1 2 3 4 5 6 7 8 9 10 11 12 13 14 15 16 17 18 19 20 21 22 23
000
FTUS41 KRLX 161122
TAFCRW
TAF
KCRW 161122Z 1612/1712 32006KT P6SM BKN040
     FM161400 32008G14KT P6SM SCT040
     FM162200 33007KT P6SM SKC
     FM170200 00000KT P6SM SKC
     FM170900 00000KT 3SM BR SKC=

USA.gov is the U.S. government's official web portal to all federal, state and local government web resources and services.